Time;durP1;ratioP1;P1;durP2;ratioP2;P2;SDS_P1;SDS_P2;PMS_P1;PMS_P2;Temp;Humidity;BMP_temperature;BMP_pressure;BME280_temperature;BME280_humidity;BME280_pressure;Samples;Min_cycle;Max_cycle;Signal;HPM_P1;HPM_P2
2022/10/23 00:01:16;;;;;;;22.40;10.38;;;;;;;13.13;81.52;101294.97;4793088;29;20058;-96
2022/10/23 00:03:43;;;;;;;13.93;8.82;;;;;;;13.08;81.82;101284.53;4792818;29;20039;-96
2022/10/23 00:06:08;;;;;;;13.68;8.95;;;;;;;13.06;81.82;101290.88;4792280;29;20022;-96
2022/10/23 00:08:34;;;;;;;12.52;8.57;;;;;;;13.03;81.91;101273.25;4793230;29;20396;-96
2022/10/23 00:10:59;;;;;;;15.48;8.50;;;;;;;13.08;82.02;101278.38;4800704;29;20035;-96
2022/10/23 00:13:25;;;;;;;14.80;8.65;;;;;;;13.02;82.28;101274.19;4810960;29;20035;-96
2022/10/23 00:15:50;;;;;;;13.90;8.50;;;;;;;13.07;82.69;101287.28;4810423;29;20033;-96
2022/10/23 00:18:15;;;;;;;11.05;7.82;;;;;;;12.99;82.57;101275.19;4810928;29;20041;-96
2022/10/23 00:20:41;;;;;;;10.85;7.90;;;;;;;13.03;82.44;101279.44;4810359;29;20030;-96
2022/10/23 00:23:06;;;;;;;11.98;8.23;;;;;;;13.01;82.82;101281.31;4827330;29;20471;-95
2022/10/23 00:25:32;;;;;;;17.75;8.02;;;;;;;13.02;82.63;101288.31;4809572;29;20067;-96
2022/10/23 00:27:58;;;;;;;13.45;7.55;;;;;;;12.99;82.74;101275.19;4810768;29;20038;-96
2022/10/23 00:30:23;;;;;;;10.57;7.45;;;;;;;13.03;82.74;101283.88;4800319;29;20451;-96
2022/10/23 00:32:49;;;;;;;13.02;7.85;;;;;;;13.05;82.53;101282.00;4809798;29;20060;-96
2022/10/23 00:35:14;;;;;;;13.70;8.10;;;;;;;13.05;83.31;101278.50;4826818;29;20023;-96
2022/10/23 00:37:39;;;;;;;11.38;7.50;;;;;;;13.00;83.28;101278.69;4830619;29;20057;-96
2022/10/23 00:40:06;;;;;;;13.45;7.55;;;;;;;13.02;82.91;101276.84;4796113;29;20053;-96
2022/10/23 00:42:31;;;;;;;13.38;7.72;;;;;;;13.07;83.09;101280.16;4812314;29;20075;-96
2022/10/23 00:45:20;;;;;;;12.73;7.63;;;;;;;13.08;82.48;101279.22;4811068;29;20031;-96
2022/10/23 00:47:46;;;;;;;14.13;7.30;;;;;;;13.07;83.05;101271.34;4810033;29;20137;-96
2022/10/23 00:50:11;;;;;;;14.70;6.43;;;;;;;13.03;82.89;101267.94;4812895;29;20494;-96
2022/10/23 00:52:44;;;;;;;16.02;7.82;;;;;;;13.09;83.37;101275.63;4812446;29;20113;-96
2022/10/23 00:55:09;;;;;;;;;;;;;;;13.24;81.13;101282.09;4811032;29;20066;-96
2022/10/23 00:57:36;;;;;;;14.02;6.57;;;;;;;12.98;83.04;101264.63;4810345;29;19912;-96
2022/10/23 01:00:02;;;;;;;12.68;6.85;;;;;;;13.03;83.13;101273.25;4816786;29;20063;-96
2022/10/23 01:02:28;;;;;;;14.02;6.78;;;;;;;13.08;83.58;101281.88;4815914;29;20050;-96
2022/10/23 01:04:54;;;;;;;12.07;7.05;;;;;;;13.10;83.66;101273.84;4817675;29;20034;-96
2022/10/23 01:07:24;;;;;;;11.63;7.85;;;;;;;13.17;83.24;101278.81;4818381;29;20038;-96
2022/10/23 01:10:13;;;;;;;11.02;6.85;;;;;;;13.20;82.76;101267.22;4820011;29;20483;-96
2022/10/23 01:13:19;;;;;;;13.75;7.25;;;;;;;13.23;82.87;101273.28;4818886;29;20034;-96
2022/10/23 01:16:17;;;;;;;14.10;7.25;;;;;;;13.20;83.12;101275.19;4818289;29;20130;-96
2022/10/23 01:18:45;;;;;;;11.57;7.32;;;;;;;13.13;83.34;101265.75;4817185;29;20183;-96
2022/10/23 01:21:28;;;;;;;13.85;6.50;;;;;;;13.11;83.13;101251.69;4825039;29;20026;-96
2022/10/23 01:24:09;;;;;;;14.02;7.18;;;;;;;13.13;83.28;101260.44;4800411;29;20030;-96
2022/10/23 01:26:50;;;;;;;12.07;6.90;;;;;;;13.14;82.36;101275.44;4799182;29;20121;-96
2022/10/23 01:29:23;;;;;;;14.25;6.95;;;;;;;12.97;83.02;101249.66;4799234;29;20031;-96
2022/10/23 01:31:55;;;;;;;15.48;6.88;;;;;;;12.97;82.31;101255.81;4817123;29;20027;-96
2022/10/23 01:34:38;;;;;;;10.45;6.50;;;;;;;12.93;82.73;101246.25;4801671;29;20030;-96
2022/10/23 01:37:06;;;;;;;17.15;7.57;;;;;;;12.86;82.94;101235.97;4802931;29;20042;-96
2022/10/23 01:39:37;;;;;;;11.82;6.63;;;;;;;12.91;83.30;101252.53;4802192;29;20023;-96
2022/10/23 01:42:09;;;;;;;14.65;7.35;;;;;;;12.89;83.10;101238.50;4803994;29;20027;-96
2022/10/23 01:45:08;;;;;;;12.52;6.72;;;;;;;12.89;82.06;101234.06;4803809;29;20029;-96
2022/10/23 01:47:34;;;;;;;9.52;6.35;;;;;;;12.77;82.37;101224.81;4819382;29;20125;-96
2022/10/23 01:50:03;;;;;;;8.98;6.63;;;;;;;12.75;82.15;101210.75;4804069;29;20395;-96
2022/10/23 01:52:29;;;;;;;13.05;6.60;;;;;;;12.71;82.16;101211.81;4805704;29;20030;-96
2022/10/23 01:54:58;;;;;;;13.23;6.78;;;;;;;12.73;82.86;101217.09;4804818;29;20031;-96
2022/10/23 01:57:27;;;;;;;10.07;6.50;;;;;;;12.69;83.25;101211.03;4804432;29;20090;-96
2022/10/23 01:59:57;;;;;;;8.93;6.07;;;;;;;12.69;82.41;101212.84;4804156;29;20083;-96
2022/10/23 02:02:25;;;;;;;10.65;5.95;;;;;;;12.75;81.85;101224.03;4806816;29;20055;-96
2022/10/23 02:04:59;;;;;;;12.23;6.32;;;;;;;12.68;81.64;101222.59;4807526;29;20023;-96
2022/10/23 02:07:24;;;;;;;10.77;6.25;;;;;;;12.57;82.15;101211.56;4807653;29;20031;-96
2022/10/23 02:13:18;;;;;;;8.90;5.97;;;;;;;12.68;82.28;101227.88;4820460;29;20066;-96
2022/10/23 02:16:02;;;;;;;8.70;6.45;;;;;;;12.56;82.38;101198.38;4819979;29;20039;-96
2022/10/23 02:18:35;;;;;;;11.55;6.95;;;;;;;12.57;83.86;101210.69;4803011;29;20071;-96
2022/10/23 02:21:11;;;;;;;12.70;6.47;;;;;;;12.57;83.73;101216.00;4809373;29;20053;-96
2022/10/23 02:24:14;;;;;;;13.20;6.20;;;;;;;12.55;82.91;101194.84;4819258;29;20022;-96
2022/10/23 02:26:52;;;;;;;13.75;6.50;;;;;;;12.57;83.49;101214.19;4746183;30;20504;-96
2022/10/23 02:29:25;;;;;;;16.30;6.30;;;;;;;12.58;83.65;101212.41;4810857;29;20398;-96
2022/10/23 02:31:50;;;;;;;10.82;6.60;;;;;;;12.49;83.62;101200.41;4817922;29;20026;-96
2022/10/23 02:34:16;;;;;;;10.00;6.68;;;;;;;12.52;83.46;101198.47;4819081;29;20031;-96
2022/10/23 02:36:42;;;;;;;11.23;6.32;;;;;;;12.50;83.18;101196.84;4820473;29;20122;-96
2022/10/23 02:39:08;;;;;;;9.45;5.75;;;;;;;12.51;83.35;101191.47;4822140;29;20058;-96
2022/10/23 02:41:45;;;;;;;12.05;6.03;;;;;;;12.62;83.52;101192.78;4822537;29;20394;-96
2022/10/23 02:44:36;;;;;;;12.48;5.95;;;;;;;12.63;83.08;101184.75;4821528;29;20027;-96
2022/10/23 02:47:10;;;;;;;9.02;6.00;;;;;;;12.67;82.84;101182.84;4821668;29;20505;-96
2022/10/23 02:49:58;;;;;;;10.05;6.22;;;;;;;12.70;83.12;101177.41;4822419;29;20068;-96
2022/10/23 02:52:51;;;;;;;9.88;5.90;;;;;;;12.68;83.17;101158.03;4823442;29;20086;-95
2022/10/23 02:55:30;;;;;;;9.77;5.57;;;;;;;12.58;83.62;101138.16;4823529;29;20031;-96
2022/10/23 02:58:20;;;;;;;10.05;5.88;;;;;;;12.73;83.45;101151.63;4823546;29;20045;-96
2022/10/23 03:00:53;;;;;;;14.38;6.85;;;;;;;12.61;84.50;101130.94;4839833;29;20073;-96
2022/10/23 03:03:23;;;;;;;12.65;6.30;;;;;;;12.64;84.53;101122.84;4824853;29;20031;-96
2022/10/23 03:05:50;;;;;;;10.02;5.97;;;;;;;12.59;84.27;101118.66;4834422;29;20014;-96
2022/10/23 03:08:16;;;;;;;7.85;5.82;;;;;;;12.57;83.64;101110.75;4834816;29;20023;-96
2022/10/23 03:10:42;;;;;;;10.75;6.68;;;;;;;12.60;84.00;101115.94;4834862;29;20045;-96
2022/10/23 03:13:09;;;;;;;13.32;6.53;;;;;;;12.69;83.90;101127.94;4834832;29;20016;-96
2022/10/23 03:15:35;;;;;;;10.27;7.53;;;;;;;12.60;83.66;101113.28;4834800;29;20022;-96
2022/10/23 03:18:01;;;;;;;15.02;6.13;;;;;;;12.58;83.19;101106.31;4834650;29;20034;-96
2022/10/23 03:20:26;;;;;;;9.52;6.28;;;;;;;12.62;83.80;101116.72;4834413;29;20025;-96
2022/10/23 03:22:52;;;;;;;10.43;5.82;;;;;;;12.56;83.01;101109.06;4834564;29;20058;-96
2022/10/23 03:25:17;;;;;;;10.70;6.60;;;;;;;12.59;83.82;101102.72;4830044;29;20023;-96
2022/10/23 03:27:43;;;;;;;12.77;6.53;;;;;;;12.57;83.72;101100.16;4829495;29;20038;-96
2022/10/23 03:30:09;;;;;;;12.10;6.95;;;;;;;12.58;83.89;101096.56;4828411;29;20037;-96
2022/10/23 03:32:35;;;;;;;10.15;6.63;;;;;;;12.68;84.05;101103.22;4827007;29;20050;-96
2022/10/23 03:35:01;;;;;;;11.68;6.60;;;;;;;12.59;83.33;101085.06;4822677;29;20064;-96
2022/10/23 03:37:26;;;;;;;14.55;6.10;;;;;;;12.70;83.54;101106.66;4822608;29;20030;-96
2022/10/23 03:39:52;;;;;;;12.38;6.43;;;;;;;12.61;84.09;101075.22;4822869;29;20037;-96
2022/10/23 03:42:17;;;;;;;10.63;6.93;;;;;;;12.71;83.71;101091.59;4821841;29;20027;-96
2022/10/23 03:44:43;;;;;;;13.20;6.93;;;;;;;12.64;84.56;101082.19;4821084;29;20026;-96
2022/10/23 03:47:43;;;;;;;13.60;7.40;;;;;;;12.86;84.28;101098.84;4822247;29;20041;-95
2022/10/23 03:50:10;;;;;;;9.80;6.30;;;;;;;12.77;84.62;101093.94;4821239;29;20022;-96
2022/10/23 03:52:35;;;;;;;15.95;7.22;;;;;;;12.77;84.99;101086.84;4823142;29;20030;-96
2022/10/23 03:55:01;;;;;;;9.63;6.53;;;;;;;12.76;84.85;101079.81;4821145;29;20035;-95
2022/10/23 03:57:26;;;;;;;11.30;6.60;;;;;;;12.78;85.22;101074.47;4823616;29;20030;-96
2022/10/23 03:59:52;;;;;;;13.43;6.55;;;;;;;12.79;84.70;101070.88;4820936;29;20400;-96
2022/10/23 04:02:18;;;;;;;11.10;6.57;;;;;;;12.90;85.07;101076.53;4821989;29;20054;-96
2022/10/23 04:04:43;;;;;;;12.90;6.30;;;;;;;12.83;84.70;101058.34;4820570;29;20030;-96
2022/10/23 04:07:58;;;;;;;14.57;6.47;;;;;;;13.00;84.76;101072.53;4820141;29;20497;-96
2022/10/23 04:10:24;;;;;;;9.07;6.47;;;;;;;12.86;84.79;101056.38;4815878;29;20090;-96
2022/10/23 04:12:50;;;;;;;14.10;6.10;;;;;;;12.96;84.52;101056.81;4818948;29;20452;-96
2022/10/23 04:15:15;;;;;;;13.07;6.32;;;;;;;12.88;84.83;101043.06;4802207;29;20065;-96
2022/10/23 04:17:41;;;;;;;11.32;6.07;;;;;;;12.85;84.04;101032.59;4801968;29;20034;-96
2022/10/23 04:20:06;;;;;;;16.23;7.03;;;;;;;12.87;84.75;101038.66;4801527;29;20027;-96
2022/10/23 04:22:34;;;;;;;10.13;5.78;;;;;;;12.89;85.26;101052.75;4801402;29;20098;-96
2022/10/23 04:25:28;;;;;;;16.08;6.22;;;;;;;12.98;84.95;101061.13;4817944;29;20019;-96
2022/10/23 04:27:53;;;;;;;9.75;5.93;;;;;;;12.87;85.03;101049.28;4800591;29;20042;-96
2022/10/23 04:30:19;;;;;;;13.77;6.10;;;;;;;12.87;85.85;101046.63;4797481;29;20060;-96
2022/10/23 04:32:49;;;;;;;10.02;5.43;;;;;;;12.86;85.10;101044.91;4799327;29;20651;-96
2022/10/23 04:35:14;;;;;;;12.25;5.88;;;;;;;12.85;85.51;101041.41;4798093;29;20035;-96
2022/10/23 04:37:40;;;;;;;9.25;5.50;;;;;;;12.87;85.65;101041.31;4800337;29;20035;-96
2022/10/23 04:40:06;;;;;;;13.50;5.93;;;;;;;12.83;85.33;101031.81;4800111;29;20027;-96
2022/10/23 04:42:32;;;;;;;9.35;5.32;;;;;;;12.88;85.15;101048.38;4800240;29;20031;-96
2022/10/23 04:44:57;;;;;;;10.48;5.18;;;;;;;12.90;85.28;101050.00;4797846;29;20066;-96
2022/10/23 04:47:23;;;;;;;7.07;4.97;;;;;;;12.79;85.25;101036.38;4799206;29;20046;-96
2022/10/23 04:49:49;;;;;;;11.20;5.28;;;;;;;12.85;85.49;101045.84;4798015;29;20030;-96
2022/10/23 04:52:15;;;;;;;11.07;5.40;;;;;;;12.92;85.65;101053.47;4798580;29;20077;-96
2022/10/23 04:54:40;;;;;;;11.07;5.40;;;;;;;12.87;85.49;101034.25;4799037;29;20022;-96
2022/10/23 04:57:07;;;;;;;11.05;5.30;;;;;;;12.80;84.78;101031.94;4798726;29;20031;-95
2022/10/23 04:59:32;;;;;;;11.35;5.88;;;;;;;12.92;85.54;101053.47;4797583;29;20075;-96
2022/10/23 05:01:59;;;;;;;6.95;5.07;;;;;;;12.80;85.46;101027.50;4798088;29;20133;-96
2022/10/23 05:04:25;;;;;;;6.60;4.72;;;;;;;12.85;84.94;101043.19;4798723;29;20121;-96
2022/10/23 05:06:50;;;;;;;8.00;4.82;;;;;;;12.90;85.27;101043.84;4796225;29;20077;-95
2022/10/23 05:09:15;;;;;;;9.10;5.28;;;;;;;12.76;85.11;101017.94;4800628;29;20027;-96
2022/10/23 05:11:41;;;;;;;13.90;5.53;;;;;;;12.75;85.34;101014.44;4799164;29;20073;-96
2022/10/23 05:14:06;;;;;;;13.65;5.47;;;;;;;12.82;85.57;101024.75;4799425;29;20084;-96
2022/10/23 05:16:50;;;;;;;8.43;4.88;;;;;;;12.89;85.39;101042.13;4799323;29;20065;-96
2022/10/23 05:19:28;;;;;;;14.82;5.00;;;;;;;12.79;86.09;101014.31;4798702;29;20034;-96
2022/10/23 05:21:55;;;;;;;12.80;5.40;;;;;;;12.84;85.83;101017.59;4797011;29;20106;-96
2022/10/23 05:24:21;;;;;;;10.10;5.22;;;;;;;12.85;85.96;101016.66;4798949;29;20037;-96
2022/10/23 05:26:50;;;;;;;7.70;5.15;;;;;;;12.87;86.24;101006.81;4797969;29;20179;-96
2022/10/23 05:29:18;;;;;;;9.25;5.40;;;;;;;12.82;86.13;101006.19;4797347;29;20042;-96
2022/10/23 05:31:43;;;;;;;10.68;5.25;;;;;;;12.82;86.30;100999.09;4813897;29;20167;-96
2022/10/23 05:34:11;;;;;;;9.98;5.35;;;;;;;12.80;85.79;101006.25;4796338;29;20062;-95
2022/10/23 05:36:37;;;;;;;10.90;5.00;;;;;;;12.84;85.97;101004.34;4798326;29;20034;-96
2022/10/23 05:39:03;;;;;;;7.82;4.85;;;;;;;12.77;85.40;100996.66;4796010;29;20031;-96
2022/10/23 05:41:29;;;;;;;9.30;5.25;;;;;;;12.88;85.92;101024.50;4796638;29;20042;-96
2022/10/23 05:43:54;;;;;;;7.78;4.78;;;;;;;12.83;85.88;101008.78;4797582;29;20032;-96
2022/10/23 05:46:22;;;;;;;8.45;4.68;;;;;;;12.74;85.88;100993.31;4798275;29;20038;-96
2022/10/23 05:48:51;;;;;;;7.18;4.85;;;;;;;12.79;86.70;100998.38;4799409;29;20026;-96
2022/10/23 05:51:21;;;;;;;7.93;5.00;;;;;;;12.74;85.57;100988.00;4800390;29;20026;-96
2022/10/23 05:53:51;;;;;;;7.85;4.55;;;;;;;12.73;85.55;100984.47;4802800;29;20118;-96
2022/10/23 05:56:20;;;;;;;8.48;4.80;;;;;;;12.77;86.17;100993.13;4801092;29;20472;-96
2022/10/23 05:58:45;;;;;;;9.23;5.28;;;;;;;12.82;86.24;100995.56;4799329;29;20026;-96
2022/10/23 06:01:12;;;;;;;9.00;4.97;;;;;;;12.75;86.45;100987.06;4800214;29;20556;-96
2022/10/23 06:03:39;;;;;;;9.05;5.00;;;;;;;12.72;86.39;100972.13;4799549;29;20509;-96
2022/10/23 06:06:06;;;;;;;10.20;5.07;;;;;;;12.79;86.60;100985.97;4800668;29;20563;-96
2022/10/23 06:08:32;;;;;;;8.27;4.68;;;;;;;12.72;85.17;100977.44;4799243;29;20047;-96
2022/10/23 06:10:57;;;;;;;8.63;4.40;;;;;;;12.72;86.14;100972.13;4801271;29;20022;-96
2022/10/23 06:13:23;;;;;;;7.65;5.07;;;;;;;12.76;86.03;100976.34;4816165;29;20084;-95
2022/10/23 06:15:48;;;;;;;10.80;5.22;;;;;;;12.86;86.48;100991.84;4799919;29;20027;-96
2022/10/23 06:18:14;;;;;;;9.00;5.22;;;;;;;12.91;86.69;100987.19;4816325;29;20063;-96
2022/10/23 06:20:40;;;;;;;11.80;5.32;;;;;;;12.87;86.85;100975.88;4802927;29;20026;-96
2022/10/23 06:23:06;;;;;;;10.20;5.10;;;;;;;12.87;86.51;100969.69;4816311;29;20118;-96
2022/10/23 06:25:32;;;;;;;11.52;5.15;;;;;;;12.83;86.66;100963.69;4813304;29;20474;-95
2022/10/23 06:27:58;;;;;;;9.90;4.53;;;;;;;12.91;86.44;100972.13;4814846;29;20031;-96
2022/10/23 06:30:24;;;;;;;10.70;5.00;;;;;;;12.88;86.81;100958.16;4815945;29;20031;-96
2022/10/23 06:32:49;;;;;;;10.93;5.00;;;;;;;13.01;86.67;100977.88;4814992;29;20117;-95
2022/10/23 06:35:17;;;;;;;9.43;5.43;;;;;;;13.00;86.89;100966.38;4830812;29;20483;-96
2022/10/23 06:37:43;;;;;;;15.98;5.53;;;;;;;13.08;86.81;100963.34;4815278;29;20117;-96
2022/10/23 06:40:08;;;;;;;10.95;5.22;;;;;;;13.01;86.57;100948.69;4815331;29;20061;-96
2022/10/23 06:42:34;;;;;;;10.85;4.93;;;;;;;13.03;86.59;100955.63;4815649;29;20053;-96
2022/10/23 06:45:00;;;;;;;7.18;4.93;;;;;;;13.01;87.11;100932.75;4816453;29;20083;-96
2022/10/23 06:47:26;;;;;;;10.77;5.40;;;;;;;13.09;86.97;100946.47;4816348;29;20030;-96
2022/10/23 06:49:52;;;;;;;10.15;5.30;;;;;;;13.11;86.82;100944.63;4816404;29;20487;-96
2022/10/23 06:52:17;;;;;;;10.70;5.03;;;;;;;13.13;86.83;100937.44;4832493;29;20086;-95
2022/10/23 06:54:42;;;;;;;11.00;5.18;;;;;;;13.22;86.76;100947.63;4815023;29;20030;-95
2022/10/23 06:57:08;;;;;;;7.72;5.13;;;;;;;13.18;86.54;100935.41;4814294;29;20049;-96
2022/10/23 06:59:33;;;;;;;5.68;4.72;;;;;;;13.28;86.40;100947.31;4818469;29;20022;-96
2022/10/23 07:01:59;;;;;;;10.27;5.07;;;;;;;13.24;87.10;100932.50;4813723;29;20046;-96
2022/10/23 07:04:24;;;;;;;8.68;5.30;;;;;;;13.30;86.76;100931.34;4814117;29;20026;-95
2022/10/23 07:06:55;;;;;;;12.70;5.20;;;;;;;13.31;86.81;100938.38;4812311;29;20050;-95
2022/10/23 07:09:22;;;;;;;;;;;;;;;13.54;85.26;100947.84;4833985;29;20054;-95
2022/10/23 07:11:49;;;;;;;12.75;5.88;;;;;;;13.45;86.41;100935.00;4814891;29;19913;-96
2022/10/23 07:14:14;;;;;;;9.20;4.80;;;;;;;13.41;86.41;100929.00;4816028;29;20058;-96
2022/10/23 07:16:39;;;;;;;10.15;5.40;;;;;;;13.48;86.49;100934.88;4803720;29;20030;-96
2022/10/23 07:19:05;;;;;;;9.07;5.22;;;;;;;13.53;86.38;100928.38;4796722;29;20180;-96
2022/10/23 07:21:35;;;;;;;12.23;5.07;;;;;;;13.50;86.09;100920.56;4797219;29;20026;-96
2022/10/23 07:24:45;;;;;;;7.18;5.15;;;;;;;13.70;86.03;100934.59;4797000;29;20033;-96
2022/10/23 07:27:10;;;;;;;11.02;5.15;;;;;;;13.68;86.17;100924.06;4797366;29;20069;-94
2022/10/23 07:29:36;;;;;;;8.82;5.60;;;;;;;13.63;86.25;100911.97;4814782;29;20031;-95
2022/10/23 07:32:01;;;;;;;10.73;5.45;;;;;;;13.69;85.86;100915.16;4797636;29;20109;-96
2022/10/23 07:34:26;;;;;;;11.00;5.35;;;;;;;13.76;85.73;100913.91;4797028;29;20034;-96
2022/10/23 07:36:53;;;;;;;10.75;6.25;;;;;;;13.86;85.89;100927.56;4796578;29;20407;-96
2022/10/23 07:39:21;;;;;;;9.35;5.80;;;;;;;13.84;85.80;100920.59;4798642;29;20035;-96
2022/10/23 07:41:46;;;;;;;11.55;5.40;;;;;;;13.81;85.86;100904.84;4812106;29;20083;-96
2022/10/23 07:47:34;;;;;;;8.48;5.43;;;;;;;13.97;85.93;100917.22;4813808;29;20526;-94
2022/10/23 07:49:59;;;;;;;10.18;5.70;;;;;;;13.93;85.25;100910.34;4796951;29;20027;-96
2022/10/23 07:52:25;;;;;;;8.95;6.07;;;;;;;13.99;85.36;100903.88;4796145;29;20811;-96
2022/10/23 07:54:51;;;;;;;10.25;5.65;;;;;;;13.98;85.66;100891.50;4795751;29;20057;-96
2022/10/23 07:57:17;;;;;;;10.07;5.35;;;;;;;14.02;85.24;100893.91;4796448;29;20026;-96
2022/10/23 07:59:42;;;;;;;8.73;5.38;;;;;;;14.19;84.78;100921.41;4799361;29;20091;-96
2022/10/23 08:02:12;;;;;;;9.35;5.43;;;;;;;14.18;85.35;100904.59;4796041;29;20430;-96
2022/10/23 08:04:39;;;;;;;7.93;5.10;;;;;;;14.17;85.21;100889.56;4796534;29;20031;-96
2022/10/23 08:07:04;;;;;;;11.55;6.35;;;;;;;14.35;84.96;100906.31;4796598;29;20040;-96
2022/10/23 08:09:30;;;;;;;10.65;5.25;;;;;;;14.41;84.77;100900.69;4797582;29;20034;-96
2022/10/23 08:11:56;;;;;;;10.50;5.60;;;;;;;14.52;84.19;100908.09;4798775;29;20114;-95
2022/10/23 08:17:45;;;;;;;7.05;5.68;;;;;;;14.63;83.68;100883.53;4814644;29;20494;-96
2022/10/23 08:21:04;;;;;;;11.73;5.82;;;;;;;14.84;84.00;100908.09;4794725;29;20479;-96
2022/10/23 08:23:29;;;;;;;9.77;5.13;;;;;;;14.80;83.53;100902.09;4793664;29;20026;-96
2022/10/23 08:29:19;;;;;;;8.18;4.60;;;;;;;14.97;82.61;100894.00;4809844;29;20134;-96
2022/10/23 08:31:45;;;;;;;9.05;4.85;;;;;;;15.04;82.68;100887.34;4804244;29;20083;-95
2022/10/23 08:34:10;;;;;;;11.25;5.38;;;;;;;15.08;82.46;100882.72;4814180;29;20034;-96
2022/10/23 08:36:38;;;;;;;9.32;5.65;;;;;;;15.12;81.96;100876.28;4814235;29;20068;-96
2022/10/23 08:39:05;;;;;;;9.38;5.35;;;;;;;15.16;81.60;100879.63;4815650;29;20041;-96
2022/10/23 08:42:13;;;;;;;6.95;5.05;;;;;;;15.21;81.78;100889.06;4812484;29;20033;-96
2022/10/23 08:44:51;;;;;;;10.43;5.20;;;;;;;15.05;81.95;100859.78;4812611;29;20037;-95
2022/10/23 08:47:23;;;;;;;9.48;5.07;;;;;;;15.10;81.67;100864.84;4829981;29;20072;-96
2022/10/23 08:49:54;;;;;;;8.30;5.50;;;;;;;15.20;82.63;100873.13;4813198;29;20050;-96
2022/10/23 08:52:36;;;;;;;8.90;5.10;;;;;;;15.19;82.69;100863.44;4813270;29;20060;-96
2022/10/23 08:55:28;;;;;;;7.40;5.03;;;;;;;15.30;82.11;100880.50;4812318;29;20031;-96
2022/10/23 08:58:05;;;;;;;10.05;5.57;;;;;;;15.34;82.11;100874.97;4807284;29;20077;-96
2022/10/23 09:00:32;;;;;;;7.85;5.13;;;;;;;15.32;81.23;100851.13;4808986;29;20083;-96
2022/10/23 09:03:02;;;;;;;11.45;4.90;;;;;;;15.38;81.13;100849.88;4796451;29;20047;-96
2022/10/23 09:05:31;;;;;;;10.07;4.90;;;;;;;15.50;80.87;100868.66;4811224;29;20027;-96
2022/10/23 09:08:17;;;;;;;7.18;4.28;;;;;;;15.40;81.03;100848.00;4794831;29;20062;-95
2022/10/23 09:11:25;;;;;;;8.73;4.68;;;;;;;15.58;81.18;100857.56;4781098;29;20027;-96
2022/10/23 09:14:39;;;;;;;8.00;4.40;;;;;;;15.60;80.90;100849.44;4812903;29;20095;-95
2022/10/23 09:17:53;;;;;;;7.13;4.68;;;;;;;15.68;81.06;100841.88;4797649;29;20130;-96
2022/10/23 09:20:25;;;;;;;8.25;4.18;;;;;;;15.69;80.62;100836.44;4796586;29;20073;-96
2022/10/23 09:23:00;;;;;;;7.25;4.00;;;;;;;15.79;80.42;100834.91;4785565;29;20043;-96
2022/10/23 09:25:33;;;;;;;8.93;4.30;;;;;;;15.72;80.03;100814.94;4817402;29;20087;-96
2022/10/23 09:28:00;;;;;;;7.72;4.15;;;;;;;15.81;79.10;100816.19;4801607;29;20121;-96
2022/10/23 09:30:25;;;;;;;11.98;4.45;;;;;;;15.93;79.67;100828.72;4803421;29;20041;-96
2022/10/23 09:32:51;;;;;;;10.55;3.97;;;;;;;15.87;79.35;100809.63;4804044;29;20035;-96
2022/10/23 09:35:22;;;;;;;8.18;4.38;;;;;;;15.85;79.59;100812.34;4802374;29;20033;-96
2022/10/23 09:37:51;;;;;;;5.63;3.72;;;;;;;15.98;79.35;100821.31;4802386;29;20027;-96
2022/10/23 09:41:04;;;;;;;5.50;4.20;;;;;;;16.05;79.22;100808.44;4788255;29;20027;-96
2022/10/23 09:43:31;;;;;;;5.63;3.60;;;;;;;16.01;78.80;100799.78;4802574;29;20062;-96
2022/10/23 09:46:21;;;;;;;9.00;4.22;;;;;;;16.10;78.87;100801.00;4804683;29;20031;-96
2022/10/23 09:48:57;;;;;;;7.70;4.03;;;;;;;15.97;78.56;100781.41;4802467;29;20117;-96
2022/10/23 09:51:22;;;;;;;6.97;3.85;;;;;;;16.00;78.18;100773.22;4804835;29;20130;-96
2022/10/23 09:53:54;;;;;;;6.40;3.90;;;;;;;15.99;78.32;100775.03;4804764;29;20027;-96
2022/10/23 09:56:32;;;;;;;6.07;3.42;;;;;;;16.10;78.60;100790.34;4800678;29;20425;-96
2022/10/23 09:59:23;;;;;;;7.07;3.95;;;;;;;16.12;78.53;100785.75;4800631;29;20039;-96
2022/10/23 10:05:26;;;;;;;6.80;3.75;;;;;;;16.36;77.81;100782.44;4819963;29;20067;-96
2022/10/23 10:08:11;;;;;;;4.55;3.67;;;;;;;16.41;78.07;100772.34;4804889;29;20059;-96
2022/10/23 10:10:45;;;;;;;6.20;4.28;;;;;;;16.32;78.01;100737.31;4805545;29;20042;-96
2022/10/23 10:13:33;;;;;;;5.40;3.83;;;;;;;16.47;77.92;100762.13;4814039;29;20053;-96
2022/10/23 10:16:30;;;;;;;7.05;3.47;;;;;;;16.51;77.60;100752.97;4817077;29;20019;-95
2022/10/23 10:19:22;;;;;;;5.50;3.58;;;;;;;16.51;77.60;100741.44;4816805;29;20111;-96
2022/10/23 10:25:09;;;;;;;5.55;3.30;;;;;;;16.55;76.50;100737.59;4815062;29;20038;-96
2022/10/23 10:27:59;;;;;;;5.97;3.28;;;;;;;16.60;77.12;100727.47;4799442;29;20035;-96
2022/10/23 10:30:44;;;;;;;7.20;3.47;;;;;;;16.54;76.68;100718.06;4817147;29;20033;-96
2022/10/23 10:34:07;;;;;;;5.30;3.28;;;;;;;16.72;76.87;100741.84;4816698;29;20038;-96
2022/10/23 10:37:02;;;;;;;8.67;3.50;;;;;;;16.74;76.83;100726.56;4762728;29;20043;-96
2022/10/23 10:40:10;;;;;;;11.55;3.60;;;;;;;16.98;76.58;100746.28;4777346;30;20020;-96
2022/10/23 10:46:29;;;;;;;5.07;3.28;;;;;;;17.27;74.63;100732.72;4722767;30;20080;-96
2022/10/23 10:52:31;;;;;;;4.50;3.53;;;;;;;17.65;72.97;100703.25;4722134;30;20084;-96
2022/10/23 10:55:44;;;;;;;9.00;3.72;;;;;;;18.13;72.74;100706.03;4724029;30;20066;-96
2022/10/23 10:58:20;;;;;;;7.03;2.80;;;;;;;18.50;70.21;100711.31;4789175;24;20046;-93
2022/10/23 11:00:51;;;;;;;4.75;3.25;;;;;;;18.75;69.32;100692.47;4786259;29;20035;-93
2022/10/23 11:03:37;;;;;;;5.88;3.42;;;;;;;19.16;69.92;100692.88;4770167;29;20075;-92
2022/10/23 11:06:04;;;;;;;5.97;3.08;;;;;;;19.34;67.41;100689.59;4758524;29;20090;-94
2022/10/23 11:08:38;;;;;;;7.72;3.10;;;;;;;19.42;66.50;100672.91;4778871;30;20556;-92
2022/10/23 11:11:12;;;;;;;7.35;3.10;;;;;;;19.48;67.17;100693.88;4798386;29;20054;-92
2022/10/23 11:13:41;;;;;;;6.38;2.70;;;;;;;19.44;66.96;100686.19;4764355;30;20036;-93
2022/10/23 11:16:18;;;;;;;7.13;3.13;;;;;;;19.31;67.96;100697.91;4790283;29;20119;-93
2022/10/23 11:18:55;;;;;;;9.82;3.13;;;;;;;19.28;68.35;100681.22;4781103;30;20047;-92
2022/10/23 11:21:39;;;;;;;11.77;3.35;;;;;;;19.26;67.66;100689.38;4779609;30;20468;-93
2022/10/23 11:24:04;;;;;;;9.25;2.83;;;;;;;19.44;67.71;100678.16;4782974;29;20431;-93
2022/10/23 11:26:38;;;;;;;6.67;2.83;;;;;;;19.59;66.27;100677.78;4779459;30;20039;-91
2022/10/23 11:29:17;;;;;;;4.97;2.72;;;;;;;19.64;66.73;100672.09;4775615;30;20281;-91
2022/10/23 11:32:17;;;;;;;3.38;2.40;;;;;;;19.73;66.67;100674.03;4785850;29;20046;-92
2022/10/23 11:34:54;;;;;;;5.90;2.97;;;;;;;19.68;66.14;100672.66;4771809;30;20400;-94
2022/10/23 11:37:21;;;;;;;6.05;3.00;;;;;;;19.69;65.79;100648.41;4763536;30;20028;-90
2022/10/23 11:40:21;;;;;;;6.75;3.05;;;;;;;19.83;66.53;100636.56;4759310;30;20038;-92
2022/10/23 11:42:49;;;;;;;5.32;3.13;;;;;;;20.03;63.76;100640.28;4748835;30;20041;-93
2022/10/23 11:45:35;;;;;;;6.53;3.00;;;;;;;20.29;65.60;100630.91;4780501;30;20520;-93
2022/10/23 11:48:22;;;;;;;7.05;2.83;;;;;;;20.58;63.75;100620.41;4779112;30;20024;-93
2022/10/23 11:50:48;;;;;;;4.63;2.53;;;;;;;20.73;62.17;100630.81;4764680;30;20553;-92
2022/10/23 11:53:31;;;;;;;8.82;3.25;;;;;;;20.93;63.01;100618.31;4753517;30;20035;-93
2022/10/23 11:56:03;;;;;;;4.68;2.50;;;;;;;20.89;61.92;100620.44;4768712;30;20401;-92
2022/10/23 11:58:56;;;;;;;5.35;3.00;;;;;;;20.85;62.83;100619.00;4763993;29;20570;-93
2022/10/23 12:01:44;;;;;;;8.63;3.13;;;;;;;20.55;62.05;100617.13;4781987;30;20039;-92
2022/10/23 12:04:12;;;;;;;6.95;2.80;;;;;;;20.35;63.35;100625.00;4784940;29;20456;-93
2022/10/23 12:06:40;;;;;;;6.95;2.95;;;;;;;20.12;63.35;100613.53;4776102;30;20128;-92
2022/10/23 12:09:22;;;;;;;7.28;2.92;;;;;;;20.01;64.50;100612.72;4774860;30;20051;-92
2022/10/23 12:12:00;;;;;;;5.22;3.05;;;;;;;19.91;64.99;100609.97;4782458;29;20540;-91
2022/10/23 12:14:37;;;;;;;9.30;3.10;;;;;;;19.83;64.88;100602.53;4779805;30;20518;-93